sensor_id;sensor_type;location;lat;lon;timestamp;temperature;humidity
12229;DHT22;6177;52.402;9.800;2022-10-04T00:02:26;10.80;92.40
12229;DHT22;6177;52.402;9.800;2022-10-04T00:05:15;10.90;92.50
12229;DHT22;6177;52.402;9.800;2022-10-04T00:11:13;10.90;92.50
12229;DHT22;6177;52.402;9.800;2022-10-04T00:14:15;11.00;92.60
12229;DHT22;6177;52.402;9.800;2022-10-04T00:17:10;11.00;92.60
12229;DHT22;6177;52.402;9.800;2022-10-04T00:19:55;11.00;92.50
12229;DHT22;6177;52.402;9.800;2022-10-04T00:28:50;11.10;92.50
12229;DHT22;6177;52.402;9.800;2022-10-04T00:34:56;11.10;92.30
12229;DHT22;6177;52.402;9.800;2022-10-04T00:41:00;11.10;92.20
12229;DHT22;6177;52.402;9.800;2022-10-04T00:43:47;11.10;92.30
12229;DHT22;6177;52.402;9.800;2022-10-04T00:46:32;11.10;92.40
12229;DHT22;6177;52.402;9.800;2022-10-04T00:49:21;11.10;92.50
12229;DHT22;6177;52.402;9.800;2022-10-04T00:52:19;11.10;92.40
12229;DHT22;6177;52.402;9.800;2022-10-04T00:55:08;11.10;92.40
12229;DHT22;6177;52.402;9.800;2022-10-04T00:57:59;11.10;92.40
12229;DHT22;6177;52.402;9.800;2022-10-04T01:00:44;11.10;92.40
12229;DHT22;6177;52.402;9.800;2022-10-04T01:03:40;11.10;92.40
12229;DHT22;6177;52.402;9.800;2022-10-04T01:06:27;11.10;92.40
12229;DHT22;6177;52.402;9.800;2022-10-04T01:09:12;11.10;92.40
12229;DHT22;6177;52.402;9.800;2022-10-04T01:12:17;11.10;92.40
12229;DHT22;6177;52.402;9.800;2022-10-04T01:15:17;11.10;92.40
12229;DHT22;6177;52.402;9.800;2022-10-04T01:21:08;11.10;92.30
12229;DHT22;6177;52.402;9.800;2022-10-04T01:26:44;11.10;92.30
12229;DHT22;6177;52.402;9.800;2022-10-04T01:29:29;11.10;92.30
12229;DHT22;6177;52.402;9.800;2022-10-04T01:32:14;11.10;92.30
12229;DHT22;6177;52.402;9.800;2022-10-04T01:35:00;11.10;92.40
12229;DHT22;6177;52.402;9.800;2022-10-04T01:37:45;11.10;92.40
12229;DHT22;6177;52.402;9.800;2022-10-04T01:40:30;11.10;92.40
12229;DHT22;6177;52.402;9.800;2022-10-04T01:43:23;11.20;92.30
12229;DHT22;6177;52.402;9.800;2022-10-04T01:46:19;11.20;92.20
12229;DHT22;6177;52.402;9.800;2022-10-04T01:49:15;11.20;92.20
12229;DHT22;6177;52.402;9.800;2022-10-04T01:52:09;11.20;92.20
12229;DHT22;6177;52.402;9.800;2022-10-04T01:55:08;11.20;92.20
12229;DHT22;6177;52.402;9.800;2022-10-04T02:01:25;11.30;92.20
12229;DHT22;6177;52.402;9.800;2022-10-04T02:04:16;11.30;92.00
12229;DHT22;6177;52.402;9.800;2022-10-04T02:07:02;11.20;92.10
12229;DHT22;6177;52.402;9.800;2022-10-04T02:09:54;11.30;92.10
12229;DHT22;6177;52.402;9.800;2022-10-04T02:12:43;11.20;92.00
12229;DHT22;6177;52.402;9.800;2022-10-04T02:15:29;11.30;92.00
12229;DHT22;6177;52.402;9.800;2022-10-04T02:18:16;11.30;92.10
12229;DHT22;6177;52.402;9.800;2022-10-04T02:21:04;11.20;92.10
12229;DHT22;6177;52.402;9.800;2022-10-04T02:23:50;11.20;92.10
12229;DHT22;6177;52.402;9.800;2022-10-04T02:26:35;11.20;92.20
12229;DHT22;6177;52.402;9.800;2022-10-04T02:29:20;11.20;92.20
12229;DHT22;6177;52.402;9.800;2022-10-04T02:32:06;11.20;92.20
12229;DHT22;6177;52.402;9.800;2022-10-04T02:35:10;11.20;92.20
12229;DHT22;6177;52.402;9.800;2022-10-04T02:44:17;11.20;92.20
12229;DHT22;6177;52.402;9.800;2022-10-04T02:47:17;11.20;92.20
12229;DHT22;6177;52.402;9.800;2022-10-04T02:50:23;11.20;92.30
12229;DHT22;6177;52.402;9.800;2022-10-04T02:53:51;11.10;92.30
12229;DHT22;6177;52.402;9.800;2022-10-04T02:56:34;11.10;92.30
12229;DHT22;6177;52.402;9.800;2022-10-04T02:59:20;11.10;92.50
12229;DHT22;6177;52.402;9.800;2022-10-04T03:02:24;11.10;92.50
12229;DHT22;6177;52.402;9.800;2022-10-04T03:05:11;11.10;92.50
12229;DHT22;6177;52.402;9.800;2022-10-04T03:07:56;11.00;92.50
12229;DHT22;6177;52.402;9.800;2022-10-04T03:10:42;11.10;92.50
12229;DHT22;6177;52.402;9.800;2022-10-04T03:13:27;11.10;92.60
12229;DHT22;6177;52.402;9.800;2022-10-04T03:16:12;11.10;92.60
12229;DHT22;6177;52.402;9.800;2022-10-04T03:18:57;11.10;92.50
12229;DHT22;6177;52.402;9.800;2022-10-04T03:21:44;11.10;92.50
12229;DHT22;6177;52.402;9.800;2022-10-04T03:24:33;11.10;92.60
12229;DHT22;6177;52.402;9.800;2022-10-04T03:27:24;11.10;92.60
12229;DHT22;6177;52.402;9.800;2022-10-04T03:30:14;11.20;92.70
12229;DHT22;6177;52.402;9.800;2022-10-04T03:32:59;11.20;92.70
12229;DHT22;6177;52.402;9.800;2022-10-04T03:35:46;11.20;92.70
12229;DHT22;6177;52.402;9.800;2022-10-04T03:38:34;11.20;92.60
12229;DHT22;6177;52.402;9.800;2022-10-04T03:41:19;11.20;92.70
12229;DHT22;6177;52.402;9.800;2022-10-04T03:44:10;11.20;92.70
12229;DHT22;6177;52.402;9.800;2022-10-04T03:46:58;11.20;92.70
12229;DHT22;6177;52.402;9.800;2022-10-04T03:49:43;11.20;92.70
12229;DHT22;6177;52.402;9.800;2022-10-04T03:52:33;11.30;92.60
12229;DHT22;6177;52.402;9.800;2022-10-04T03:55:24;11.30;92.60
12229;DHT22;6177;52.402;9.800;2022-10-04T03:58:15;11.30;92.60
12229;DHT22;6177;52.402;9.800;2022-10-04T04:04:00;11.30;92.50
12229;DHT22;6177;52.402;9.800;2022-10-04T04:07:13;11.30;92.50
12229;DHT22;6177;52.402;9.800;2022-10-04T04:10:12;11.30;92.40
12229;DHT22;6177;52.402;9.800;2022-10-04T04:15:55;11.20;92.50
12229;DHT22;6177;52.402;9.800;2022-10-04T04:18:42;11.10;92.50
12229;DHT22;6177;52.402;9.800;2022-10-04T04:21:28;11.10;92.60
12229;DHT22;6177;52.402;9.800;2022-10-04T04:24:22;11.00;92.60
12229;DHT22;6177;52.402;9.800;2022-10-04T04:27:08;11.00;92.70
12229;DHT22;6177;52.402;9.800;2022-10-04T04:29:54;11.00;92.70
12229;DHT22;6177;52.402;9.800;2022-10-04T04:32:40;11.00;92.80
12229;DHT22;6177;52.402;9.800;2022-10-04T04:35:32;10.90;92.90
12229;DHT22;6177;52.402;9.800;2022-10-04T04:38:20;10.90;93.00
12229;DHT22;6177;52.402;9.800;2022-10-04T04:41:09;11.00;93.10
12229;DHT22;6177;52.402;9.800;2022-10-04T04:43:54;11.00;93.00
12229;DHT22;6177;52.402;9.800;2022-10-04T04:46:39;11.00;93.00
12229;DHT22;6177;52.402;9.800;2022-10-04T04:49:29;11.00;93.00
12229;DHT22;6177;52.402;9.800;2022-10-04T04:52:15;11.00;92.90
12229;DHT22;6177;52.402;9.800;2022-10-04T04:55:03;11.00;92.90
12229;DHT22;6177;52.402;9.800;2022-10-04T04:57:50;11.00;92.90
12229;DHT22;6177;52.402;9.800;2022-10-04T05:00:37;11.00;92.90
12229;DHT22;6177;52.402;9.800;2022-10-04T05:03:22;11.00;92.90
12229;DHT22;6177;52.402;9.800;2022-10-04T05:06:26;10.90;92.90
12229;DHT22;6177;52.402;9.800;2022-10-04T05:09:28;11.00;92.90
12229;DHT22;6177;52.402;9.800;2022-10-04T05:12:14;11.00;93.00
12229;DHT22;6177;52.402;9.800;2022-10-04T05:15:00;10.90;93.00
12229;DHT22;6177;52.402;9.800;2022-10-04T05:17:45;10.90;93.00
12229;DHT22;6177;52.402;9.800;2022-10-04T05:20:30;10.90;93.00
12229;DHT22;6177;52.402;9.800;2022-10-04T05:23:15;10.90;93.00
12229;DHT22;6177;52.402;9.800;2022-10-04T05:26:02;11.00;93.00
12229;DHT22;6177;52.402;9.800;2022-10-04T05:28:47;11.00;93.10
12229;DHT22;6177;52.402;9.800;2022-10-04T05:31:50;11.00;93.00
12229;DHT22;6177;52.402;9.800;2022-10-04T05:34:41;11.00;93.00
12229;DHT22;6177;52.402;9.800;2022-10-04T05:40:39;11.00;92.90
12229;DHT22;6177;52.402;9.800;2022-10-04T05:43:31;11.10;92.90
12229;DHT22;6177;52.402;9.800;2022-10-04T05:46:34;11.00;92.90
12229;DHT22;6177;52.402;9.800;2022-10-04T05:49:20;11.10;92.90
12229;DHT22;6177;52.402;9.800;2022-10-04T05:52:13;11.10;92.90
12229;DHT22;6177;52.402;9.800;2022-10-04T05:55:22;11.10;92.90
12229;DHT22;6177;52.402;9.800;2022-10-04T06:01:32;11.10;92.80
12229;DHT22;6177;52.402;9.800;2022-10-04T06:20:14;11.40;92.30
12229;DHT22;6177;52.402;9.800;2022-10-04T06:23:11;11.40;92.30
12229;DHT22;6177;52.402;9.800;2022-10-04T06:26:01;11.40;92.30
12229;DHT22;6177;52.402;9.800;2022-10-04T06:28:57;11.50;92.20
12229;DHT22;6177;52.402;9.800;2022-10-04T06:35:30;11.50;92.10
12229;DHT22;6177;52.402;9.800;2022-10-04T06:44:23;11.70;91.90
12229;DHT22;6177;52.402;9.800;2022-10-04T07:02:38;12.20;91.10
12229;DHT22;6177;52.402;9.800;2022-10-04T07:05:46;12.30;91.10
12229;DHT22;6177;52.402;9.800;2022-10-04T07:08:49;12.50;90.80
12229;DHT22;6177;52.402;9.800;2022-10-04T07:11:44;12.70;90.50
12229;DHT22;6177;52.402;9.800;2022-10-04T07:14:37;12.80;90.20
12229;DHT22;6177;52.402;9.800;2022-10-04T07:17:29;12.90;89.80
12229;DHT22;6177;52.402;9.800;2022-10-04T07:20:22;13.00;89.50
12229;DHT22;6177;52.402;9.800;2022-10-04T07:23:15;13.10;89.30
12229;DHT22;6177;52.402;9.800;2022-10-04T07:26:22;13.20;88.90
12229;DHT22;6177;52.402;9.800;2022-10-04T07:29:25;13.30;88.00
12229;DHT22;6177;52.402;9.800;2022-10-04T07:32:33;13.30;87.60
12229;DHT22;6177;52.402;9.800;2022-10-04T07:41:25;13.70;87.00
12229;DHT22;6177;52.402;9.800;2022-10-04T07:47:18;13.90;85.70
12229;DHT22;6177;52.402;9.800;2022-10-04T07:50:32;14.00;84.90
12229;DHT22;6177;52.402;9.800;2022-10-04T07:53:20;14.00;84.40
12229;DHT22;6177;52.402;9.800;2022-10-04T07:56:16;14.00;84.20
12229;DHT22;6177;52.402;9.800;2022-10-04T07:59:26;13.90;84.00
12229;DHT22;6177;52.402;9.800;2022-10-04T08:02:46;13.80;84.20
12229;DHT22;6177;52.402;9.800;2022-10-04T08:05:36;13.80;83.70
12229;DHT22;6177;52.402;9.800;2022-10-04T08:14:49;13.50;84.70
12229;DHT22;6177;52.402;9.800;2022-10-04T08:18:15;13.50;84.80
12229;DHT22;6177;52.402;9.800;2022-10-04T08:21:05;13.50;85.00
12229;DHT22;6177;52.402;9.800;2022-10-04T08:24:18;13.50;85.20
12229;DHT22;6177;52.402;9.800;2022-10-04T08:27:23;13.70;84.90
12229;DHT22;6177;52.402;9.800;2022-10-04T08:30:15;13.80;84.80
12229;DHT22;6177;52.402;9.800;2022-10-04T08:33:11;13.90;84.60
12229;DHT22;6177;52.402;9.800;2022-10-04T08:39:02;14.30;82.60
12229;DHT22;6177;52.402;9.800;2022-10-04T09:16:48;15.20;77.80
12229;DHT22;6177;52.402;9.800;2022-10-04T09:22:53;15.40;78.10
12229;DHT22;6177;52.402;9.800;2022-10-04T09:26:14;15.50;77.10
12229;DHT22;6177;52.402;9.800;2022-10-04T09:29:50;15.60;76.70
12229;DHT22;6177;52.402;9.800;2022-10-04T09:44:35;15.80;75.50
12229;DHT22;6177;52.402;9.800;2022-10-04T09:57:01;16.20;75.20
12229;DHT22;6177;52.402;9.800;2022-10-04T10:25:28;16.50;72.50
12229;DHT22;6177;52.402;9.800;2022-10-04T10:38:18;16.60;71.50
12229;DHT22;6177;52.402;9.800;2022-10-04T10:47:30;16.60;72.40
12229;DHT22;6177;52.402;9.800;2022-10-04T10:53:18;16.70;71.20
12229;DHT22;6177;52.402;9.800;2022-10-04T10:59:55;16.80;70.70
12229;DHT22;6177;52.402;9.800;2022-10-04T11:03:22;16.90;69.80
12229;DHT22;6177;52.402;9.800;2022-10-04T11:06:36;16.90;69.60
12229;DHT22;6177;52.402;9.800;2022-10-04T11:10:21;17.00;69.20
12229;DHT22;6177;52.402;9.800;2022-10-04T11:13:09;17.00;69.80
12229;DHT22;6177;52.402;9.800;2022-10-04T11:46:58;17.70;66.10
12229;DHT22;6177;52.402;9.800;2022-10-04T11:50:33;17.60;65.30
12229;DHT22;6177;52.402;9.800;2022-10-04T11:53:46;17.60;64.00
12229;DHT22;6177;52.402;9.800;2022-10-04T11:56:57;17.60;64.30
12229;DHT22;6177;52.402;9.800;2022-10-04T12:00:08;17.60;64.00
12229;DHT22;6177;52.402;9.800;2022-10-04T12:03:41;18.00;64.60
12229;DHT22;6177;52.402;9.800;2022-10-04T12:19:15;21.20;59.60
12229;DHT22;6177;52.402;9.800;2022-10-04T12:25:08;22.30;55.00
12229;DHT22;6177;52.402;9.800;2022-10-04T12:31:24;21.90;49.80
12229;DHT22;6177;52.402;9.800;2022-10-04T12:43:33;22.40;48.70
12229;DHT22;6177;52.402;9.800;2022-10-04T12:52:52;23.40;46.20
12229;DHT22;6177;52.402;9.800;2022-10-04T13:04:54;24.40;43.40
12229;DHT22;6177;52.402;9.800;2022-10-04T13:29:53;25.40;39.90
12229;DHT22;6177;52.402;9.800;2022-10-04T13:32:43;25.40;40.70
12229;DHT22;6177;52.402;9.800;2022-10-04T13:35:51;25.70;39.90
12229;DHT22;6177;52.402;9.800;2022-10-04T13:47:52;26.40;38.90
12229;DHT22;6177;52.402;9.800;2022-10-04T13:57:29;26.50;36.50
12229;DHT22;6177;52.402;9.800;2022-10-04T14:09:45;25.70;37.80
12229;DHT22;6177;52.402;9.800;2022-10-04T14:21:43;22.30;44.40
12229;DHT22;6177;52.402;9.800;2022-10-04T14:47:37;20.30;53.00
12229;DHT22;6177;52.402;9.800;2022-10-04T15:06:37;20.20;54.50
12229;DHT22;6177;52.402;9.800;2022-10-04T15:12:37;20.10;54.30
12229;DHT22;6177;52.402;9.800;2022-10-04T15:18:44;20.00;54.90
12229;DHT22;6177;52.402;9.800;2022-10-04T15:21:44;20.10;54.50
12229;DHT22;6177;52.402;9.800;2022-10-04T15:24:44;20.20;55.20
12229;DHT22;6177;52.402;9.800;2022-10-04T15:30:42;20.30;55.50
12229;DHT22;6177;52.402;9.800;2022-10-04T15:33:38;20.60;53.90
12229;DHT22;6177;52.402;9.800;2022-10-04T15:42:22;22.40;46.80
12229;DHT22;6177;52.402;9.800;2022-10-04T15:51:09;21.80;46.60
12229;DHT22;6177;52.402;9.800;2022-10-04T15:54:05;21.40;48.10
12229;DHT22;6177;52.402;9.800;2022-10-04T15:56:59;21.00;49.80
12229;DHT22;6177;52.402;9.800;2022-10-04T16:00:12;20.70;50.70
12229;DHT22;6177;52.402;9.800;2022-10-04T16:06:27;20.30;52.50
12229;DHT22;6177;52.402;9.800;2022-10-04T16:09:36;20.20;53.00
12229;DHT22;6177;52.402;9.800;2022-10-04T16:12:28;20.10;53.60
12229;DHT22;6177;52.402;9.800;2022-10-04T16:15:35;19.80;54.90
12229;DHT22;6177;52.402;9.800;2022-10-04T16:18:47;19.60;55.70
12229;DHT22;6177;52.402;9.800;2022-10-04T16:21:51;19.30;57.20
12229;DHT22;6177;52.402;9.800;2022-10-04T16:31:16;18.60;60.90
12229;DHT22;6177;52.402;9.800;2022-10-04T16:40:45;18.10;62.40
12229;DHT22;6177;52.402;9.800;2022-10-04T16:43:59;17.90;62.80
12229;DHT22;6177;52.402;9.800;2022-10-04T16:46:44;17.60;62.90
12229;DHT22;6177;52.402;9.800;2022-10-04T16:49:36;17.60;63.90
12229;DHT22;6177;52.402;9.800;2022-10-04T16:55:49;17.30;64.40
12229;DHT22;6177;52.402;9.800;2022-10-04T16:58:42;17.20;65.20
12229;DHT22;6177;52.402;9.800;2022-10-04T17:04:38;17.00;66.10
12229;DHT22;6177;52.402;9.800;2022-10-04T17:07:54;16.90;66.40
12229;DHT22;6177;52.402;9.800;2022-10-04T17:13:37;16.70;67.50
12229;DHT22;6177;52.402;9.800;2022-10-04T17:16:37;16.60;68.00
12229;DHT22;6177;52.402;9.800;2022-10-04T17:19:41;16.50;68.50
12229;DHT22;6177;52.402;9.800;2022-10-04T17:25:43;16.30;69.30
12229;DHT22;6177;52.402;9.800;2022-10-04T17:28:56;16.20;70.10
12229;DHT22;6177;52.402;9.800;2022-10-04T17:32:20;16.20;70.40
12229;DHT22;6177;52.402;9.800;2022-10-04T17:38:07;16.00;71.30
12229;DHT22;6177;52.402;9.800;2022-10-04T17:47:10;15.80;72.30
12229;DHT22;6177;52.402;9.800;2022-10-04T17:50:04;15.70;72.50
12229;DHT22;6177;52.402;9.800;2022-10-04T17:53:19;15.70;72.90
12229;DHT22;6177;52.402;9.800;2022-10-04T17:56:47;15.60;73.30
12229;DHT22;6177;52.402;9.800;2022-10-04T17:59:44;15.50;73.50
12229;DHT22;6177;52.402;9.800;2022-10-04T18:08:45;15.30;74.70
12229;DHT22;6177;52.402;9.800;2022-10-04T18:11:43;15.30;74.90
12229;DHT22;6177;52.402;9.800;2022-10-04T18:14:57;15.20;74.90
12229;DHT22;6177;52.402;9.800;2022-10-04T18:17:49;15.20;75.20
12229;DHT22;6177;52.402;9.800;2022-10-04T18:20:56;15.20;75.80
12229;DHT22;6177;52.402;9.800;2022-10-04T18:23:52;15.20;75.50
12229;DHT22;6177;52.402;9.800;2022-10-04T18:26:57;15.20;75.60
12229;DHT22;6177;52.402;9.800;2022-10-04T18:29:54;15.10;75.50
12229;DHT22;6177;52.402;9.800;2022-10-04T18:32:45;15.10;75.70
12229;DHT22;6177;52.402;9.800;2022-10-04T18:35:32;15.10;75.70
12229;DHT22;6177;52.402;9.800;2022-10-04T18:38:26;15.10;75.80
12229;DHT22;6177;52.402;9.800;2022-10-04T18:41:17;15.10;75.80
12229;DHT22;6177;52.402;9.800;2022-10-04T18:44:14;15.10;75.80
12229;DHT22;6177;52.402;9.800;2022-10-04T18:47:01;15.00;75.80
12229;DHT22;6177;52.402;9.800;2022-10-04T18:49:53;15.00;75.90
12229;DHT22;6177;52.402;9.800;2022-10-04T18:55:40;14.90;76.00
12229;DHT22;6177;52.402;9.800;2022-10-04T19:11:06;14.60;76.30
12229;DHT22;6177;52.402;9.800;2022-10-04T19:14:25;14.60;76.70
12229;DHT22;6177;52.402;9.800;2022-10-04T19:20:52;14.40;76.40
12229;DHT22;6177;52.402;9.800;2022-10-04T19:27:51;14.40;76.50
12229;DHT22;6177;52.402;9.800;2022-10-04T19:33:51;14.30;76.80
12229;DHT22;6177;52.402;9.800;2022-10-04T19:36:55;14.20;76.80
12229;DHT22;6177;52.402;9.800;2022-10-04T19:42:40;14.10;77.10
12229;DHT22;6177;52.402;9.800;2022-10-04T19:48:58;14.10;77.30
12229;DHT22;6177;52.402;9.800;2022-10-04T19:51:49;14.10;77.40
12229;DHT22;6177;52.402;9.800;2022-10-04T19:54:37;14.10;77.40
12229;DHT22;6177;52.402;9.800;2022-10-04T19:57:36;14.10;77.30
12229;DHT22;6177;52.402;9.800;2022-10-04T20:00:22;14.10;77.40
12229;DHT22;6177;52.402;9.800;2022-10-04T20:03:10;14.00;77.60
12229;DHT22;6177;52.402;9.800;2022-10-04T20:05:58;14.00;77.70
12229;DHT22;6177;52.402;9.800;2022-10-04T20:08:56;13.80;77.90
12229;DHT22;6177;52.402;9.800;2022-10-04T20:17:29;13.60;78.50
12229;DHT22;6177;52.402;9.800;2022-10-04T20:26:35;13.50;78.80
12229;DHT22;6177;52.402;9.800;2022-10-04T20:38:59;13.40;79.10
12229;DHT22;6177;52.402;9.800;2022-10-04T20:41:45;13.40;79.30
12229;DHT22;6177;52.402;9.800;2022-10-04T20:47:55;13.40;79.40
12229;DHT22;6177;52.402;9.800;2022-10-04T20:50:40;13.30;79.40
12229;DHT22;6177;52.402;9.800;2022-10-04T20:53:28;13.30;79.50
12229;DHT22;6177;52.402;9.800;2022-10-04T20:59:03;13.30;79.70
12229;DHT22;6177;52.402;9.800;2022-10-04T21:02:01;13.30;79.70
12229;DHT22;6177;52.402;9.800;2022-10-04T21:04:48;13.20;79.70
12229;DHT22;6177;52.402;9.800;2022-10-04T21:07:36;13.20;79.90
12229;DHT22;6177;52.402;9.800;2022-10-04T21:10:21;13.20;79.90
12229;DHT22;6177;52.402;9.800;2022-10-04T21:13:36;13.10;80.00
12229;DHT22;6177;52.402;9.800;2022-10-04T21:16:09;13.10;80.30
12229;DHT22;6177;52.402;9.800;2022-10-04T21:18:54;13.00;80.60
12229;DHT22;6177;52.402;9.800;2022-10-04T21:21:49;12.90;80.90
12229;DHT22;6177;52.402;9.800;2022-10-04T21:27:37;12.80;81.50
12229;DHT22;6177;52.402;9.800;2022-10-04T21:30:21;12.70;81.70
12229;DHT22;6177;52.402;9.800;2022-10-04T21:33:08;12.70;82.30
12229;DHT22;6177;52.402;9.800;2022-10-04T21:35:52;12.60;82.60
12229;DHT22;6177;52.402;9.800;2022-10-04T21:38:37;12.60;82.80
12229;DHT22;6177;52.402;9.800;2022-10-04T21:41:21;12.60;82.90
12229;DHT22;6177;52.402;9.800;2022-10-04T21:44:06;12.60;83.00
12229;DHT22;6177;52.402;9.800;2022-10-04T21:46:50;12.60;83.00
12229;DHT22;6177;52.402;9.800;2022-10-04T21:49:35;12.70;82.90
12229;DHT22;6177;52.402;9.800;2022-10-04T21:52:20;12.70;82.80
12229;DHT22;6177;52.402;9.800;2022-10-04T21:55:05;12.80;82.70
12229;DHT22;6177;52.402;9.800;2022-10-04T21:57:53;12.80;82.60
12229;DHT22;6177;52.402;9.800;2022-10-04T22:00:38;12.90;82.40
12229;DHT22;6177;52.402;9.800;2022-10-04T22:03:22;12.90;82.20
12229;DHT22;6177;52.402;9.800;2022-10-04T22:06:07;12.90;82.10
12229;DHT22;6177;52.402;9.800;2022-10-04T22:08:52;13.00;82.00
12229;DHT22;6177;52.402;9.800;2022-10-04T22:11:36;13.00;81.80
12229;DHT22;6177;52.402;9.800;2022-10-04T22:14:21;13.00;82.10
12229;DHT22;6177;52.402;9.800;2022-10-04T22:17:06;13.00;81.70
12229;DHT22;6177;52.402;9.800;2022-10-04T22:19:50;13.00;81.60
12229;DHT22;6177;52.402;9.800;2022-10-04T22:22:36;13.00;81.60
12229;DHT22;6177;52.402;9.800;2022-10-04T22:25:22;13.00;81.60
12229;DHT22;6177;52.402;9.800;2022-10-04T22:28:25;13.10;81.60
12229;DHT22;6177;52.402;9.800;2022-10-04T22:31:21;13.10;81.50
12229;DHT22;6177;52.402;9.800;2022-10-04T22:34:14;13.10;81.50
12229;DHT22;6177;52.402;9.800;2022-10-04T22:37:02;13.00;81.60
12229;DHT22;6177;52.402;9.800;2022-10-04T22:39:46;13.00;81.70
12229;DHT22;6177;52.402;9.800;2022-10-04T22:42:31;13.00;81.80
12229;DHT22;6177;52.402;9.800;2022-10-04T22:45:22;13.00;81.90
12229;DHT22;6177;52.402;9.800;2022-10-04T22:48:13;13.00;82.00
12229;DHT22;6177;52.402;9.800;2022-10-04T22:50:58;13.00;82.00
12229;DHT22;6177;52.402;9.800;2022-10-04T22:53:44;13.00;82.10
12229;DHT22;6177;52.402;9.800;2022-10-04T22:56:29;12.90;82.10
12229;DHT22;6177;52.402;9.800;2022-10-04T22:59:16;12.90;82.20
12229;DHT22;6177;52.402;9.800;2022-10-04T23:02:10;12.90;82.30
12229;DHT22;6177;52.402;9.800;2022-10-04T23:05:08;12.90;82.20
12229;DHT22;6177;52.402;9.800;2022-10-04T23:07:55;13.00;82.10
12229;DHT22;6177;52.402;9.800;2022-10-04T23:10:39;13.00;82.00
12229;DHT22;6177;52.402;9.800;2022-10-04T23:13:25;13.00;82.00
12229;DHT22;6177;52.402;9.800;2022-10-04T23:16:15;13.10;82.40
12229;DHT22;6177;52.402;9.800;2022-10-04T23:19:12;13.00;82.10
12229;DHT22;6177;52.402;9.800;2022-10-04T23:21:58;13.00;82.10
12229;DHT22;6177;52.402;9.800;2022-10-04T23:24:43;13.00;82.00
12229;DHT22;6177;52.402;9.800;2022-10-04T23:27:28;13.00;82.00
12229;DHT22;6177;52.402;9.800;2022-10-04T23:30:19;13.00;82.00
12229;DHT22;6177;52.402;9.800;2022-10-04T23:35:59;13.10;81.70
12229;DHT22;6177;52.402;9.800;2022-10-04T23:38:58;13.10;81.70
12229;DHT22;6177;52.402;9.800;2022-10-04T23:41:43;13.10;81.60
12229;DHT22;6177;52.402;9.800;2022-10-04T23:44:35;13.00;81.60
12229;DHT22;6177;52.402;9.800;2022-10-04T23:47:21;13.00;81.60
12229;DHT22;6177;52.402;9.800;2022-10-04T23:50:32;12.90;81.80
12229;DHT22;6177;52.402;9.800;2022-10-04T23:53:28;12.90;81.90
12229;DHT22;6177;52.402;9.800;2022-10-04T23:56:24;12.80;82.00
12229;DHT22;6177;52.402;9.800;2022-10-04T23:59:19;12.80;82.30
